createdAt,value
2022-08-12T20:14:38.488Z,57.40
2022-08-12T20:17:08.348Z,56.40
2022-08-12T20:20:01.662Z,56.30
2022-08-12T20:22:31.451Z,56.60
2022-08-12T20:25:08.979Z,56.00
2022-08-12T20:28:04.277Z,56.20
2022-08-12T20:30:52.848Z,55.80
2022-08-12T20:33:32.445Z,56.50
2022-08-12T20:36:40.949Z,55.20
2022-08-12T20:39:04.822Z,56.40
2022-08-12T20:41:52.338Z,55.50
2022-08-12T20:44:20.619Z,55.00
2022-08-12T20:46:50.587Z,55.10
2022-08-12T20:49:18.828Z,55.40
2022-08-12T20:51:54.854Z,56.20
2022-08-12T20:54:32.493Z,55.70
2022-08-12T20:57:09.765Z,54.90
2022-08-12T20:59:47.965Z,54.90
2022-08-12T21:02:24.490Z,56.50
2022-08-12T21:05:20.233Z,56.10
2022-08-12T21:07:52.268Z,56.90
2022-08-12T21:10:21.760Z,56.40
2022-08-12T21:12:55.497Z,57.90
2022-08-12T21:15:53.393Z,59.20
2022-08-12T21:18:29.300Z,57.10
2022-08-12T21:20:59.943Z,57.20
2022-08-12T21:23:30.871Z,58.00
2022-08-12T21:26:06.090Z,57.50
2022-08-12T21:28:42.242Z,57.60
2022-08-12T21:32:37.168Z,59.70
2022-08-12T21:34:19.358Z,59.70
2022-08-12T21:36:53.305Z,58.80
2022-08-12T21:39:27.830Z,59.60
2022-08-12T21:42:06.496Z,58.00
2022-08-12T21:45:48.037Z,58.00
2022-08-12T21:47:28.857Z,57.80
2022-08-12T21:50:06.805Z,57.60
2022-08-12T21:52:36.453Z,57.60
2022-08-12T21:55:08.250Z,57.60
2022-08-12T21:57:51.195Z,57.50
2022-08-12T22:00:32.405Z,57.60
2022-08-12T22:04:02.279Z,57.60
2022-08-12T22:06:31.259Z,58.00
2022-08-12T22:09:16.492Z,58.10
2022-08-12T22:11:49.367Z,57.80
2022-08-12T22:14:28.433Z,58.30
2022-08-12T22:17:01.414Z,58.10
2022-08-12T22:19:34.856Z,59.00
2022-08-12T22:22:08.083Z,59.20
2022-08-12T22:24:36.874Z,58.90
2022-08-12T22:27:28.253Z,58.70
2022-08-12T22:30:19.894Z,59.60
2022-08-12T22:32:50.693Z,59.20
2022-08-12T22:35:55.396Z,60.00
2022-08-12T22:38:25.349Z,60.60
2022-08-12T22:40:54.302Z,61.60
2022-08-12T22:43:58.944Z,61.10
2022-08-12T22:46:52.513Z,62.60
2022-08-12T22:49:36.373Z,62.40
2022-08-12T22:52:08.470Z,62.70
2022-08-12T22:54:46.343Z,62.60
2022-08-12T22:57:48.983Z,62.40
2022-08-12T23:00:28.659Z,62.40
2022-08-12T23:03:02.655Z,63.30
2022-08-12T23:05:56.669Z,64.00
2022-08-12T23:08:22.327Z,63.50
2022-08-12T23:10:52.260Z,63.50
2022-08-12T23:13:44.106Z,64.60
2022-08-12T23:16:28.517Z,63.40
2022-08-12T23:19:01.775Z,62.70
2022-08-12T23:22:03.454Z,64.80
2022-08-12T23:24:27.115Z,64.10
2022-08-12T23:27:14.505Z,64.40
2022-08-12T23:30:17.534Z,65.30
2022-08-12T23:32:36.804Z,65.60
2022-08-12T23:35:09.467Z,66.20
2022-08-12T23:37:53.692Z,65.50
2022-08-12T23:40:24.240Z,66.90
2022-08-12T23:42:55.272Z,64.80
2022-08-12T23:45:32.019Z,66.00
2022-08-12T23:48:03.005Z,65.80
2022-08-12T23:50:34.488Z,66.30
2022-08-12T23:53:05.587Z,66.80
2022-08-12T23:55:38.175Z,65.60
2022-08-12T23:58:21.413Z,67.40
